»·PEaware :: N434EP KAST-KPSC

N434EP :: KAST-KPSC

FLIGHT INFORMATION

Flight Status: Arrived
Operator: Privately registered:
United States
More flights under this callsign
Pilot: Drew H. (3199)
Aircraft: Unknown
(PIPA)
More flights by this aircraft type
Origin: KAST Astoria Regl
United States
Destination: KPSC Tri-Cities
United States
More flights between these airports :: More routes between these airports
Route: AST WHYTE V204 PSC
File this flight plan on PilotEdge
Remarks:
Altitude:
(Current/Filed)
11,000ft
Speed:
(Current/Filed)
190kts
Departed: 16-May-18 04:42 PM
Arrived: 16-May-18 05:52 PM
Distance/Time
Traveled:
198nm/1:10
Distance/Time
To Go:
Arrived

Flight Plot

Page will automatically refresh every two minutes.

Flight plan parsing failed; only flown route is shown


Map Options




Map Legend


Flown Route
Filed Route
Departure Airport
Arrival Airport
Navaid (VOR, NDB)
Fix

Horizontal Profiles

Position Reports

Time Latitude Longitude Heading Altitude Ground
Speed
16-May-18 16:24 46.156789 -123.881295 239 18ft 0kts
16-May-18 16:25 46.156789 -123.881295 239 18ft 0kts
16-May-18 16:26 46.156789 -123.881295 239 18ft 0kts
16-May-18 16:27 46.156789 -123.881295 239 18ft 0kts
16-May-18 16:28 46.156789 -123.881295 239 18ft 0kts
16-May-18 16:29 46.156789 -123.881295 239 18ft 0kts
16-May-18 16:30 46.156789 -123.881295 239 18ft 0kts
16-May-18 16:31 46.156789 -123.881295 239 18ft 0kts
16-May-18 16:32 46.156789 -123.881295 239 18ft 0kts
16-May-18 16:33 46.156789 -123.881295 239 18ft 0kts
16-May-18 16:34 46.156789 -123.881295 239 18ft 0kts
16-May-18 16:35 46.156789 -123.881295 239 18ft 0kts
16-May-18 16:36 46.157652 -123.880352 68 18ft 15kts
16-May-18 16:37 46.158043 -123.874397 97 18ft 20kts
16-May-18 16:38 46.157644 -123.868135 78 18ft 0kts
16-May-18 16:39 46.157644 -123.868135 78 18ft 0kts
16-May-18 16:40 46.157644 -123.868135 78 18ft 0kts
16-May-18 16:41 46.158341 -123.867763 275 18ft 18kts
16-May-18 16:42 46.169929 -123.891479 336 1117ft 108kts
16-May-18 16:43 46.178454 -123.929627 232 2639ft 118kts
16-May-18 16:44 46.159659 -123.906510 79 4062ft 134kts
16-May-18 16:45 46.167413 -123.853871 71 5411ft 136kts
16-May-18 16:46 46.177932 -123.801182 71 6721ft 138kts
16-May-18 16:47 46.188507 -123.747791 71 7893ft 143kts
16-May-18 16:48 46.199971 -123.689514 71 8769ft 152kts
16-May-18 16:49 46.211506 -123.630494 71 9620ft 154kts
16-May-18 16:50 46.223214 -123.570339 71 10434ft 156kts
16-May-18 16:51 46.235134 -123.508909 71 10992ft 171kts
16-May-18 16:52 46.248874 -123.437763 72 10985ft 194kts
16-May-18 16:53 46.263728 -123.360437 72 10974ft 205kts
16-May-18 16:54 46.278670 -123.282355 72 10970ft 207kts
16-May-18 16:55 46.293979 -123.202013 72 10969ft 207kts
16-May-18 16:56 46.309264 -123.121504 72 10968ft 207kts
16-May-18 16:57 46.324427 -123.041118 72 10969ft 207kts
16-May-18 16:58 46.339490 -122.961021 71 10970ft 205kts
16-May-18 16:59 46.354294 -122.882055 70 10972ft 203kts
16-May-18 17:00 46.368966 -122.803602 70 10972ft 201kts
16-May-18 17:01 46.383532 -122.725350 70 10973ft 201kts
16-May-18 17:02 46.397988 -122.647317 70 10973ft 201kts
16-May-18 17:03 46.412356 -122.569386 70 10971ft 197kts
16-May-18 17:04 46.426445 -122.492692 70 10971ft 199kts
16-May-18 17:05 46.440728 -122.414577 70 10968ft 200kts
16-May-18 17:06 46.454947 -122.336495 71 10963ft 201kts
16-May-18 17:07 46.468993 -122.259039 71 10959ft 201kts
16-May-18 17:08 46.483126 -122.180757 71 10955ft 200kts
16-May-18 17:09 46.497195 -122.102460 72 10954ft 200kts
16-May-18 17:10 46.511140 -122.024526 72 10954ft 200kts
16-May-18 17:11 46.523213 -121.956787 72 10954ft 199kts
16-May-18 17:12 46.537090 -121.878614 72 10954ft 199kts
16-May-18 17:13 46.550888 -121.800549 71 10954ft 199kts
16-May-18 17:14 46.564594 -121.722575 71 10954ft 200kts
16-May-18 17:15 46.577376 -121.643548 85 10926ft 206kts
16-May-18 17:16 46.577774 -121.560026 85 10851ft 207kts
16-May-18 17:17 46.577809 -121.476433 86 10771ft 207kts
16-May-18 17:18 46.577644 -121.392999 86 10725ft 205kts
16-May-18 17:19 46.577368 -121.313020 87 10725ft 203kts
16-May-18 17:20 46.577001 -121.231840 87 10724ft 199kts
16-May-18 17:21 46.576582 -121.151450 87 10762ft 196kts
16-May-18 17:22 46.576134 -121.076671 87 11000ft 193kts
16-May-18 17:23 46.575607 -120.997609 87 11000ft 197kts
16-May-18 17:24 46.574994 -120.917448 88 10999ft 198kts
16-May-18 17:25 46.574314 -120.837278 88 10999ft 199kts
16-May-18 17:26 46.573584 -120.756818 88 10999ft 199kts
16-May-18 17:27 46.572801 -120.676323 88 10999ft 199kts
16-May-18 17:28 46.571964 -120.596049 88 10999ft 199kts
16-May-18 17:29 46.571074 -120.515938 88 10999ft 199kts
16-May-18 17:30 46.567155 -120.435905 104 11000ft 201kts
16-May-18 17:31 46.550297 -120.358290 105 10999ft 201kts
16-May-18 17:32 46.533424 -120.282208 105 10999ft 200kts
16-May-18 17:33 46.516706 -120.207702 106 10608ft 193kts
16-May-18 17:34 46.499626 -120.132085 106 9746ft 197kts
16-May-18 17:35 46.483477 -120.061048 106 9026ft 191kts
16-May-18 17:36 46.466538 -119.986861 106 8991ft 201kts
16-May-18 17:37 46.448662 -119.908996 106 8991ft 204kts
16-May-18 17:38 46.430709 -119.831064 106 8682ft 202kts
16-May-18 17:39 46.413102 -119.754899 105 7681ft 197kts
16-May-18 17:40 46.395916 -119.680741 105 6628ft 192kts
16-May-18 17:41 46.379034 -119.608156 106 5608ft 188kts
16-May-18 17:42 46.363492 -119.538121 103 4989ft 169kts
16-May-18 17:43 46.351341 -119.475935 103 4989ft 154kts
16-May-18 17:44 46.343995 -119.415446 94 4663ft 154kts
16-May-18 17:45 46.337053 -119.352493 96 3654ft 154kts
16-May-18 17:46 46.333204 -119.293809 94 2827ft 148kts
16-May-18 17:47 46.329240 -119.241367 110 1434ft 101kts
16-May-18 17:48 46.319194 -119.204245 109 1263ft 94kts
16-May-18 17:49 46.306198 -119.173371 134 1126ft 77kts
16-May-18 17:50 46.292135 -119.153799 134 853ft 66kts
16-May-18 17:51 46.279363 -119.135950 135 581ft 63kts
16-May-18 17:52 46.268988 -119.121657 133 413ft 23kts
16-May-18 17:53 46.262900 -119.113128 131 413ft 29kts
16-May-18 17:54 46.263562 -119.106001 162 413ft 6kts
16-May-18 17:55 46.263293 -119.105101 158 413ft 0kts

Navigation Log

Ident Type
Flight plan parsing failed, navigation log unavailable